Time;durP1;ratioP1;P1;durP2;ratioP2;P2;SDS_P1;SDS_P2;PMS_P1;PMS_P2;Temp;Humidity;BMP_temperature;BMP_pressure;BME280_temperature;BME280_humidity;BME280_pressure;Samples;Min_cycle;Max_cycle;Signal;HPM_P1;HPM_P2
2022/06/10 00:01:12;;;;;;;2.67;0.97;;;;;;;13.43;100.00;95936.88;4340551;32;20233;-60
2022/06/10 00:03:39;;;;;;;0.50;0.50;;;;;;;13.45;99.51;95940.03;4340436;32;20199;-60
2022/06/10 00:06:07;;;;;;;8.20;0.80;;;;;;;13.49;99.21;95941.03;4338548;32;20189;-61
2022/06/10 00:08:39;;;;;;;0.60;0.60;;;;;;;13.29;99.59;95936.88;4329813;33;20193;-60
2022/06/10 00:11:08;;;;;;;1.17;0.60;;;;;;;13.13;100.00;95943.50;4343551;33;20223;-61
2022/06/10 00:13:37;;;;;;;0.30;0.30;;;;;;;13.13;100.00;95943.50;4338309;32;20214;-60
2022/06/10 00:16:06;;;;;;;0.30;0.30;;;;;;;13.14;100.00;95946.97;4323507;32;20207;-61
2022/06/10 00:18:33;;;;;;;0.33;0.33;;;;;;;13.11;100.00;95940.34;4335193;33;20213;-61
2022/06/10 00:21:02;;;;;;;2.33;0.50;;;;;;;13.14;100.00;95944.31;4348324;32;20190;-60
2022/06/10 00:23:28;;;;;;;0.20;0.20;;;;;;;13.13;99.64;95946.16;4355478;32;20264;-60
2022/06/10 00:25:55;;;;;;;2.63;0.97;;;;;;;13.08;99.49;95947.06;4346336;32;20185;-60
2022/06/10 00:28:22;;;;;;;0.40;0.40;;;;;;;13.01;99.69;95944.00;4334635;32;22471;-60
2022/06/10 00:30:49;;;;;;;0.20;0.20;;;;;;;13.00;100.00;95941.62;4346209;32;20240;-60
2022/06/10 00:33:16;;;;;;;0.47;0.47;;;;;;;12.99;100.00;95948.03;4346321;32;20268;-61
2022/06/10 00:35:42;;;;;;;0.60;0.60;;;;;;;12.93;100.00;95947.31;4332062;32;20193;-61
2022/06/10 00:38:08;;;;;;;0.60;0.60;;;;;;;13.11;99.75;95947.53;4332406;32;20201;-61
2022/06/10 00:40:37;;;;;;;0.60;0.40;;;;;;;13.02;99.24;95942.12;4332530;32;20181;-61
2022/06/10 00:43:03;;;;;;;0.87;0.60;;;;;;;13.03;99.48;95944.50;4345033;32;20193;-61
2022/06/10 00:46:06;;;;;;;0.57;0.13;;;;;;;13.03;99.86;95954.34;4328930;33;20200;-60
2022/06/10 00:48:37;;;;;;;0.40;0.40;;;;;;;13.04;99.96;95956.72;4330584;32;20189;-61
2022/06/10 00:51:30;;;;;;;3.80;0.83;;;;;;;12.97;99.91;95956.31;4358486;32;20197;-60
2022/06/10 00:54:27;;;;;;;0.30;0.30;;;;;;;12.90;99.35;95950.56;4367078;32;20190;-60
2022/06/10 00:57:09;;;;;;;0.87;0.87;;;;;;;13.04;100.00;95953.28;4351407;32;20240;-60
2022/06/10 00:59:40;;;;;;;1.17;0.93;;;;;;;12.99;99.32;95950.69;4370259;32;20242;-61
2022/06/10 01:02:13;;;;;;;0.17;0.17;;;;;;;12.90;99.47;95952.44;4371675;32;20212;-60
2022/06/10 01:04:40;;;;;;;0.30;0.30;;;;;;;13.04;99.13;95955.94;4362896;32;20231;-60
2022/06/10 01:07:07;;;;;;;0.27;0.27;;;;;;;13.01;99.01;95946.66;4346033;32;20211;-60
2022/06/10 01:09:33;;;;;;;0.20;0.20;;;;;;;13.09;98.64;95942.53;4364381;32;20204;-61
2022/06/10 01:12:32;;;;;;;9.50;0.93;;;;;;;13.07;99.38;95950.81;4371091;32;20189;-60
2022/06/10 01:15:31;;;;;;;0.90;0.50;;;;;;;13.06;99.13;95943.91;4358461;32;20205;-60
2022/06/10 01:18:08;;;;;;;0.40;0.40;;;;;;;13.02;98.03;95950.91;4350241;32;20242;-61
2022/06/10 01:21:18;;;;;;;1.03;1.00;;;;;;;13.04;98.58;95954.06;4367080;32;20220;-61
2022/06/10 01:24:15;;;;;;;1.40;0.67;;;;;;;13.07;98.49;95961.47;4314354;32;20207;-61
2022/06/10 01:29:45;;;;;;;0.60;0.60;;;;;;;12.98;98.19;95963.22;4360243;32;20234;-60
2022/06/10 01:32:25;;;;;;;0.57;0.57;;;;;;;12.98;98.62;95960.56;4359379;32;20198;-60
2022/06/10 01:34:58;;;;;;;0.33;0.33;;;;;;;12.97;98.05;95953.66;4360331;32;20276;-60
2022/06/10 01:37:44;;;;;;;0.60;0.60;;;;;;;12.92;98.54;95963.59;4354266;32;20193;-60
2022/06/10 01:40:39;;;;;;;0.83;0.63;;;;;;;12.84;98.71;95962.41;4345066;32;20304;-61
2022/06/10 01:43:22;;;;;;;0.87;0.87;;;;;;;12.75;98.80;95966.78;4321691;32;20204;-60
2022/06/10 01:46:09;;;;;;;0.47;0.47;;;;;;;12.80;98.91;95964.06;4359085;32;20193;-60
2022/06/10 01:48:55;;;;;;;0.70;0.70;;;;;;;12.97;98.58;95966.16;4352270;32;20227;-61
2022/06/10 01:51:33;;;;;;;0.30;0.30;;;;;;;12.90;97.90;95969.19;4359971;32;20236;-60
2022/06/10 01:54:25;;;;;;;1.60;0.33;;;;;;;12.85;98.35;95969.31;4367321;32;20211;-60
2022/06/10 01:56:57;;;;;;;0.20;0.20;;;;;;;12.92;97.64;95971.56;4367591;32;20378;-60
2022/06/10 01:59:36;;;;;;;2.20;0.50;;;;;;;13.00;97.58;95979.69;4362431;32;20272;-60
2022/06/10 02:02:10;;;;;;;0.60;0.60;;;;;;;13.00;97.44;95984.22;4366308;32;20211;-62
2022/06/10 02:04:42;;;;;;;0.93;0.67;;;;;;;12.93;97.37;95984.59;4365185;32;20189;-61
2022/06/10 02:07:24;;;;;;;8.07;0.67;;;;;;;12.98;97.40;95989.06;4359937;32;20216;-61
2022/06/10 02:10:09;;;;;;;0.47;0.47;;;;;;;12.92;97.62;95993.66;4361094;32;20224;-61
2022/06/10 02:12:42;;;;;;;0.20;0.20;;;;;;;12.83;97.66;95991.97;4367337;32;20185;-61
2022/06/10 02:15:38;;;;;;;0.70;0.70;;;;;;;12.81;98.25;95994.94;4357948;32;20200;-61
2022/06/10 02:18:12;;;;;;;1.27;0.50;;;;;;;12.92;97.65;95992.87;4358290;32;20181;-61
2022/06/10 02:20:44;;;;;;;0.30;0.30;;;;;;;12.86;97.18;95991.41;4348806;32;20264;-61
2022/06/10 02:23:11;;;;;;;0.10;0.10;;;;;;;12.98;97.66;95989.84;4369036;32;20246;-61
2022/06/10 02:25:42;;;;;;;0.57;0.57;;;;;;;12.97;96.85;95998.13;4354907;32;20200;-61
2022/06/10 02:28:10;;;;;;;4.27;0.83;;;;;;;12.89;96.42;96004.09;4357831;32;20259;-61
2022/06/10 02:31:08;;;;;;;0.50;0.50;;;;;;;12.87;97.14;95999.09;4359191;32;20192;-61
2022/06/10 02:33:35;;;;;;;0.50;0.50;;;;;;;12.84;97.08;96009.53;4356294;32;20208;-61
2022/06/10 02:36:37;;;;;;;0.40;0.40;;;;;;;12.90;96.77;96011.81;4361215;32;20189;-61
2022/06/10 02:39:47;;;;;;;0.27;0.27;;;;;;;12.77;96.98;96017.88;4354512;32;20239;-61
2022/06/10 02:42:33;;;;;;;0.37;0.37;;;;;;;12.91;96.88;96013.38;4330644;32;20227;-61
2022/06/10 02:45:13;;;;;;;0.30;0.30;;;;;;;13.05;96.70;96016.13;4360215;32;20258;-61
2022/06/10 02:48:26;;;;;;;0.63;0.37;;;;;;;12.95;96.12;96021.59;4369199;32;20200;-61
2022/06/10 02:50:51;;;;;;;0.77;0.47;;;;;;;12.97;96.31;96022.91;4341826;32;20283;-61
2022/06/10 02:53:17;;;;;;;0.33;0.33;;;;;;;13.00;96.15;96027.66;4358492;32;20185;-61
2022/06/10 02:55:43;;;;;;;0.63;0.63;;;;;;;12.83;96.07;96027.38;4343560;32;20208;-61
2022/06/10 03:01:12;;;;;;;1.10;0.80;;;;;;;12.92;96.13;96035.50;4359382;32;20296;-61
2022/06/10 03:04:02;;;;;;;0.40;0.40;;;;;;;12.86;96.19;96037.47;4358842;32;20185;-61
2022/06/10 03:06:55;;;;;;;1.20;0.67;;;;;;;12.91;96.22;96041.91;4355542;32;20204;-60
2022/06/10 03:09:56;;;;;;;0.70;0.50;;;;;;;13.07;96.20;96037.94;4343119;32;20228;-60
2022/06/10 03:12:37;;;;;;;0.87;0.13;;;;;;;13.23;95.78;96036.63;4351594;32;20295;-61
2022/06/10 03:15:15;;;;;;;0.40;0.40;;;;;;;13.06;95.55;96042.47;4352159;32;20265;-61
2022/06/10 03:18:17;;;;;;;2.27;0.70;;;;;;;13.08;96.14;96047.50;4359093;32;20220;-61
2022/06/10 03:20:54;;;;;;;0.57;0.57;;;;;;;13.06;95.77;96050.47;4351140;32;20247;-61
2022/06/10 03:23:31;;;;;;;0.33;0.33;;;;;;;13.13;95.43;96049.28;4366017;32;20193;-61
2022/06/10 03:26:55;;;;;;;3.97;0.50;;;;;;;13.10;95.82;96047.97;4357546;32;20207;-61
2022/06/10 03:29:50;;;;;;;0.53;0.53;;;;;;;13.08;95.60;96050.97;4298821;32;20277;-61
2022/06/10 03:32:31;;;;;;;0.10;0.10;;;;;;;13.17;95.57;96058.31;4341980;32;20193;-61
2022/06/10 03:35:06;;;;;;;1.33;0.63;;;;;;;13.06;95.69;96066.44;4356971;32;20196;-61
2022/06/10 03:37:32;;;;;;;1.33;0.90;;;;;;;13.05;95.90;96067.53;4357968;32;20222;-62
2022/06/10 03:39:59;;;;;;;1.77;0.63;;;;;;;12.95;95.76;96064.22;4346173;32;20185;-61
2022/06/10 03:42:27;;;;;;;0.30;0.30;;;;;;;13.04;95.70;96060.63;4358352;32;20197;-61
2022/06/10 03:44:57;;;;;;;0.50;0.50;;;;;;;13.13;95.11;96059.94;4345346;32;20286;-61
2022/06/10 03:47:29;;;;;;;2.70;0.87;;;;;;;13.03;95.62;96069.69;4348051;32;20205;-61
2022/06/10 03:50:06;;;;;;;0.40;0.40;;;;;;;13.11;94.18;96070.09;4357615;32;20227;-61
2022/06/10 03:52:35;;;;;;;0.50;0.50;;;;;;;13.01;95.08;96066.50;4360706;32;20240;-62
2022/06/10 03:55:03;;;;;;;0.27;0.27;;;;;;;13.03;95.28;96067.03;4362627;32;20213;-61
2022/06/10 03:57:30;;;;;;;0.50;0.50;;;;;;;13.08;94.78;96071.50;4353032;32;20338;-61
2022/06/10 03:59:56;;;;;;;0.67;0.50;;;;;;;13.03;95.25;96077.69;4365197;32;20252;-61
2022/06/10 04:02:23;;;;;;;0.10;0.10;;;;;;;12.99;95.50;96075.87;4357845;32;20306;-61
2022/06/10 04:04:51;;;;;;;0.30;0.30;;;;;;;13.12;95.08;96079.66;4361318;32;20211;-61
2022/06/10 04:07:19;;;;;;;1.30;0.60;;;;;;;13.17;94.74;96088.41;4360301;32;20201;-61
2022/06/10 04:09:48;;;;;;;0.40;0.40;;;;;;;13.13;95.29;96087.38;4360881;32;20203;-61
2022/06/10 04:12:21;;;;;;;0.20;0.20;;;;;;;13.13;94.49;96091.91;4347492;32;20189;-61
2022/06/10 04:14:48;;;;;;;0.50;0.50;;;;;;;13.13;94.41;96098.03;4346295;32;20205;-61
2022/06/10 04:17:15;;;;;;;0.97;0.30;;;;;;;13.14;94.63;96096.16;4365336;32;20200;-61
2022/06/10 04:19:41;;;;;;;0.43;0.43;;;;;;;13.23;94.35;96095.25;4368360;32;20227;-61
2022/06/10 04:22:08;;;;;;;0.57;0.37;;;;;;;13.27;94.22;96098.91;4361252;32;20204;-62
2022/06/10 04:24:33;;;;;;;0.87;0.87;;;;;;;13.36;93.35;96101.69;4361110;32;20197;-61
2022/06/10 04:27:01;;;;;;;0.30;0.30;;;;;;;13.29;93.33;96101.28;4349202;32;20204;-61
2022/06/10 04:29:28;;;;;;;1.73;0.43;;;;;;;13.20;93.50;96103.03;4360124;32;20192;-61
2022/06/10 04:31:55;;;;;;;0.47;0.47;;;;;;;13.24;93.53;96102.16;4371575;32;20234;-61
2022/06/10 04:34:21;;;;;;;0.60;0.60;;;;;;;13.12;94.02;96104.44;4371262;32;20290;-61
2022/06/10 04:36:48;;;;;;;0.50;0.50;;;;;;;13.04;94.53;96103.22;4360235;32;20212;-61
2022/06/10 04:39:15;;;;;;;0.40;0.40;;;;;;;13.03;94.57;96100.84;4350065;32;20253;-61
2022/06/10 04:41:41;;;;;;;0.10;0.10;;;;;;;12.99;95.04;96108.63;4347671;32;20252;-61
2022/06/10 04:44:07;;;;;;;0.97;0.70;;;;;;;13.14;94.24;96104.16;4361660;32;20189;-61
2022/06/10 04:46:38;;;;;;;0.57;0.40;;;;;;;13.18;94.34;96107.84;4356396;32;20197;-62
2022/06/10 04:49:05;;;;;;;0.63;0.63;;;;;;;13.21;94.12;96109.94;4337858;32;20216;-61
2022/06/10 04:51:33;;;;;;;0.97;0.70;;;;;;;13.27;94.23;96108.78;4369827;32;20181;-61
2022/06/10 04:54:00;;;;;;;0.43;0.43;;;;;;;13.45;92.86;96105.28;4367641;32;20193;-61
2022/06/10 04:56:26;;;;;;;0.70;0.50;;;;;;;13.25;93.07;96114.41;4364799;32;20204;-61
2022/06/10 04:58:53;;;;;;;0.43;0.43;;;;;;;13.38;92.77;96116.31;4361239;32;20267;-61
2022/06/10 05:01:19;;;;;;;0.70;0.40;;;;;;;13.28;93.30;96118.38;4360157;32;20184;-61
2022/06/10 05:03:46;;;;;;;1.27;0.87;;;;;;;13.22;93.38;96111.53;4359984;32;20212;-61
2022/06/10 05:06:11;;;;;;;0.20;0.20;;;;;;;13.39;93.19;96122.44;4356662;32;20197;-61
2022/06/10 05:08:39;;;;;;;0.50;0.50;;;;;;;13.31;93.19;96115.88;4360316;32;20215;-61
2022/06/10 05:11:07;;;;;;;0.40;0.40;;;;;;;13.44;92.92;96125.03;4353797;32;20244;-61
2022/06/10 05:13:32;;;;;;;2.10;0.80;;;;;;;13.46;92.90;96112.22;4361027;32;20208;-63
2022/06/10 05:15:58;;;;;;;0.30;0.27;;;;;;;13.41;92.76;96117.62;4352385;32;20192;-61
2022/06/10 05:18:26;;;;;;;0.40;0.40;;;;;;;13.59;92.81;96118.66;4350226;32;20192;-61
2022/06/10 05:20:54;;;;;;;0.77;0.77;;;;;;;13.43;92.74;96118.12;4363206;32;20343;-61
2022/06/10 05:23:22;;;;;;;2.40;1.27;;;;;;;13.47;93.27;96119.13;4360335;32;20186;-61
2022/06/10 05:25:48;;;;;;;0.30;0.30;;;;;;;13.70;93.19;96120.87;4365552;32;20193;-61
2022/06/10 05:28:14;;;;;;;0.50;0.50;;;;;;;13.78;92.13;96124.72;4346527;32;20250;-61
2022/06/10 05:30:40;;;;;;;0.60;0.60;;;;;;;13.65;92.05;96120.94;4359416;32;20252;-61
2022/06/10 05:33:07;;;;;;;5.10;0.73;;;;;;;13.67;92.61;96128.66;4359655;32;20204;-61
2022/06/10 05:35:33;;;;;;;0.90;0.90;;;;;;;13.87;91.82;96140.84;4364329;32;20197;-61
2022/06/10 05:38:01;;;;;;;0.60;0.60;;;;;;;13.85;91.72;96135.03;4358276;32;20222;-61
2022/06/10 05:40:30;;;;;;;0.60;0.60;;;;;;;13.91;91.23;96134.66;4366004;32;20209;-61
2022/06/10 05:42:57;;;;;;;0.33;0.33;;;;;;;14.00;91.86;96142.75;4345885;32;20189;-61
2022/06/10 05:45:23;;;;;;;0.50;0.50;;;;;;;14.09;92.00;96141.78;4345940;32;20295;-61
2022/06/10 05:47:54;;;;;;;2.47;0.90;;;;;;;14.20;91.27;96150.38;4372887;32;20215;-61
2022/06/10 05:50:25;;;;;;;0.30;0.30;;;;;;;14.17;90.66;96148.28;4371039;32;20257;-62
2022/06/10 05:52:52;;;;;;;0.27;0.27;;;;;;;14.12;90.64;96140.41;4359753;32;20244;-61
2022/06/10 05:55:19;;;;;;;0.70;0.70;;;;;;;14.05;90.67;96150.66;4359603;32;20190;-61
2022/06/10 05:57:46;;;;;;;0.30;0.30;;;;;;;14.16;89.38;96146.72;4360688;32;20200;-61
2022/06/10 06:00:19;;;;;;;2.73;0.83;;;;;;;14.23;88.89;96143.66;4373996;32;20236;-61
2022/06/10 06:02:46;;;;;;;0.97;0.30;;;;;;;14.28;89.95;96147.03;4349305;32;20199;-62
2022/06/10 06:05:12;;;;;;;2.73;0.97;;;;;;;14.40;88.98;96147.34;4359794;32;20189;-62
2022/06/10 06:07:39;;;;;;;0.50;0.50;;;;;;;14.48;88.23;96148.53;4360227;32;20210;-61
2022/06/10 06:10:05;;;;;;;0.67;0.67;;;;;;;14.68;87.51;96150.00;4347960;32;20189;-62
2022/06/10 06:12:32;;;;;;;2.13;0.80;;;;;;;14.70;87.36;96151.31;4347541;32;20204;-61
2022/06/10 06:14:59;;;;;;;0.87;0.50;;;;;;;14.76;86.75;96154.63;4359902;32;20213;-59
2022/06/10 06:17:25;;;;;;;1.20;0.77;;;;;;;14.65;87.67;96139.94;4359252;32;20208;-59
2022/06/10 06:19:51;;;;;;;0.87;0.80;;;;;;;14.65;86.91;96155.94;4365962;32;24150;-60
2022/06/10 06:22:16;;;;;;;0.30;0.30;;;;;;;14.70;86.44;96153.19;4359931;32;20185;-60
2022/06/10 06:24:42;;;;;;;22.80;0.90;;;;;;;14.70;86.30;96145.16;4345382;32;20213;-60
2022/06/10 06:27:13;;;;;;;0.50;0.50;;;;;;;14.86;85.65;96149.09;4358605;32;20193;-60
2022/06/10 06:29:39;;;;;;;0.67;0.67;;;;;;;14.93;86.36;96154.03;4358454;32;20184;-60
2022/06/10 06:32:05;;;;;;;0.63;0.63;;;;;;;14.97;85.52;96160.34;4359628;32;20256;-60
2022/06/10 06:34:32;;;;;;;2.67;0.93;;;;;;;15.04;85.07;96161.53;4361360;32;20189;-60
2022/06/10 06:36:58;;;;;;;1.40;1.30;;;;;;;15.03;86.35;96161.81;4359974;32;20192;-60
2022/06/10 06:39:26;;;;;;;0.47;0.47;;;;;;;15.11;85.74;96156.56;4345749;32;20193;-60
2022/06/10 06:41:54;;;;;;;0.60;0.60;;;;;;;15.15;85.97;96164.00;4370227;32;20441;-60
2022/06/10 06:44:21;;;;;;;0.50;0.50;;;;;;;15.16;85.75;96162.91;4360847;32;20218;-60
2022/06/10 06:46:48;;;;;;;0.60;0.60;;;;;;;14.99;86.59;96166.97;4348917;32;20200;-60
2022/06/10 06:49:20;;;;;;;1.00;0.80;;;;;;;14.97;85.51;96161.13;4344492;32;20216;-60
2022/06/10 06:51:47;;;;;;;0.80;0.80;;;;;;;15.12;83.88;96176.88;4343647;32;20185;-60
2022/06/10 06:54:15;;;;;;;3.40;1.03;;;;;;;15.06;85.09;96175.37;4356211;32;20190;-60
2022/06/10 06:56:42;;;;;;;0.30;0.30;;;;;;;15.10;85.07;96176.38;4360106;32;20232;-60
2022/06/10 06:59:08;;;;;;;0.80;0.80;;;;;;;15.11;84.04;96169.94;4350762;32;20208;-60
2022/06/10 07:01:33;;;;;;;0.60;0.60;;;;;;;15.00;83.77;96186.47;4356908;32;20264;-59
2022/06/10 07:04:00;;;;;;;1.00;0.97;;;;;;;15.12;82.90;96184.09;4344765;32;20212;-59
2022/06/10 07:06:26;;;;;;;3.77;1.10;;;;;;;15.33;83.19;96179.88;4344773;32;20193;-60
2022/06/10 07:08:53;;;;;;;4.83;0.90;;;;;;;15.40;83.42;96179.44;4350645;32;20272;-60
2022/06/10 07:11:18;;;;;;;0.83;0.83;;;;;;;15.37;84.13;96180.06;4358521;32;20219;-59
2022/06/10 07:13:43;;;;;;;0.80;0.80;;;;;;;15.30;83.71;96187.72;4355887;32;20197;-59
2022/06/10 07:16:09;;;;;;;3.33;1.40;;;;;;;15.23;82.99;96184.66;4344276;32;20196;-60
2022/06/10 07:18:34;;;;;;;0.50;0.50;;;;;;;15.24;83.98;96181.69;4362315;32;20310;-60
2022/06/10 07:21:01;;;;;;;1.60;1.00;;;;;;;15.46;82.96;96183.59;4347157;32;20256;-60
2022/06/10 07:23:28;;;;;;;2.83;1.20;;;;;;;15.58;81.98;96177.75;4370205;32;20196;-59
2022/06/10 07:25:54;;;;;;;0.70;0.70;;;;;;;15.72;83.04;96173.91;4346725;32;20272;-60
2022/06/10 07:28:22;;;;;;;0.67;0.67;;;;;;;15.75;81.71;96186.69;4351422;32;20239;-60
2022/06/10 07:30:48;;;;;;;1.13;1.03;;;;;;;15.88;79.89;96186.91;4359397;32;20254;-60
2022/06/10 07:33:14;;;;;;;0.60;0.60;;;;;;;15.85;81.92;96185.62;4345210;32;20233;-60
2022/06/10 07:35:39;;;;;;;0.37;0.37;;;;;;;16.03;82.24;96187.31;4344664;32;20246;-60
2022/06/10 07:38:06;;;;;;;0.90;0.90;;;;;;;16.06;82.48;96186.69;4347582;32;20211;-60
2022/06/10 07:43:21;;;;;;;2.17;1.03;;;;;;;16.10;79.83;96178.84;4354568;32;20262;-60
2022/06/10 07:45:47;;;;;;;0.20;0.20;;;;;;;16.19;80.57;96185.06;4359222;32;20240;-61
2022/06/10 07:48:14;;;;;;;0.93;0.93;;;;;;;16.24;80.02;96179.53;4357345;32;20247;-60
2022/06/10 07:50:41;;;;;;;3.67;1.10;;;;;;;16.26;79.62;96185.38;4344489;32;20204;-60
2022/06/10 07:53:07;;;;;;;1.17;0.87;;;;;;;16.27;79.93;96181.63;4344815;32;20201;-61
2022/06/10 07:55:34;;;;;;;0.70;0.70;;;;;;;16.41;79.66;96197.59;4362891;32;20222;-61
2022/06/10 07:57:59;;;;;;;0.70;0.70;;;;;;;16.42;80.12;96188.44;4360316;32;20190;-61
2022/06/10 08:00:26;;;;;;;5.37;4.67;;;;;;;16.47;79.18;96186.44;4359306;32;20231;-61
2022/06/10 08:02:53;;;;;;;1.63;1.53;;;;;;;16.60;79.91;96184.75;4335995;32;20279;-60
2022/06/10 08:05:20;;;;;;;0.50;0.50;;;;;;;16.80;78.49;96194.16;4352093;32;20196;-60
2022/06/10 08:07:46;;;;;;;1.93;1.30;;;;;;;16.89;77.43;96191.47;4359317;32;20264;-60
2022/06/10 08:10:19;;;;;;;0.90;0.90;;;;;;;16.84;77.44;96195.09;4357561;32;20232;-60
2022/06/10 08:12:45;;;;;;;0.70;0.70;;;;;;;16.70;77.25;96197.91;4344953;32;20223;-60
2022/06/10 08:15:13;;;;;;;1.27;1.17;;;;;;;16.60;77.99;96197.37;4358719;32;20248;-60
2022/06/10 08:17:39;;;;;;;1.07;1.07;;;;;;;16.42;78.52;96194.59;4358038;32;20189;-60
2022/06/10 08:20:04;;;;;;;1.00;1.00;;;;;;;16.20;80.02;96189.31;4372174;32;20279;-61
2022/06/10 08:22:35;;;;;;;0.90;0.90;;;;;;;16.34;79.75;96194.56;4363085;32;20193;-60
2022/06/10 08:25:05;;;;;;;0.80;0.80;;;;;;;16.50;79.57;96191.16;4357161;32;20188;-61
2022/06/10 08:27:34;;;;;;;3.70;1.10;;;;;;;16.30;77.52;96185.56;4358957;32;20207;-60
2022/06/10 08:30:04;;;;;;;0.57;0.57;;;;;;;16.41;78.66;96190.37;4345029;32;20186;-60
2022/06/10 08:32:31;;;;;;;0.80;0.80;;;;;;;16.50;78.49;96196.53;4358764;32;20244;-60
2022/06/10 08:34:58;;;;;;;1.13;1.00;;;;;;;16.54;79.17;96195.91;4344449;32;20193;-60
2022/06/10 08:37:24;;;;;;;1.03;1.03;;;;;;;16.48;79.12;96193.38;4348900;32;20297;-60
2022/06/10 08:39:51;;;;;;;0.73;0.73;;;;;;;16.68;79.23;96188.59;4346388;32;20193;-60
2022/06/10 08:42:39;;;;;;;0.83;0.83;;;;;;;16.74;78.14;96192.72;4360630;32;20200;-60
2022/06/10 08:45:32;;;;;;;1.63;1.53;;;;;;;16.73;77.78;96191.13;4354072;32;20201;-60
2022/06/10 08:48:26;;;;;;;1.50;1.43;;;;;;;16.69;77.85;96192.84;4362197;32;20197;-60
2022/06/10 08:51:01;;;;;;;1.00;1.00;;;;;;;16.75;75.96;96203.13;4359552;32;20318;-60
2022/06/10 08:53:54;;;;;;;2.20;1.37;;;;;;;16.82;75.18;96200.00;4348637;32;20212;-60
2022/06/10 08:56:32;;;;;;;1.03;1.03;;;;;;;16.98;75.16;96195.00;4316110;32;20206;-60
2022/06/10 08:59:12;;;;;;;1.70;1.10;;;;;;;17.09;75.68;96197.03;4367485;32;20197;-60
2022/06/10 09:02:10;;;;;;;1.57;1.43;;;;;;;17.28;73.79;96193.28;4360903;32;20215;-60
2022/06/10 09:05:01;;;;;;;1.50;1.40;;;;;;;17.48;73.20;96196.13;4354830;32;20197;-62
2022/06/10 09:07:52;;;;;;;0.97;0.97;;;;;;;17.59;74.55;96191.25;4361415;32;20263;-61
2022/06/10 09:10:42;;;;;;;0.73;0.73;;;;;;;17.42;72.07;96199.31;4361182;32;20190;-61
2022/06/10 09:13:28;;;;;;;1.97;1.40;;;;;;;17.38;71.10;96198.34;4362224;32;20192;-61
2022/06/10 09:16:26;;;;;;;1.00;0.97;;;;;;;17.23;72.73;96198.81;4358948;32;20193;-61
2022/06/10 09:19:15;;;;;;;0.97;0.97;;;;;;;17.16;73.14;96205.44;4360243;32;20282;-61
2022/06/10 09:21:59;;;;;;;1.47;1.37;;;;;;;17.03;72.46;96201.00;4361914;32;20199;-61
2022/06/10 09:24:42;;;;;;;0.93;0.93;;;;;;;17.04;72.85;96209.84;4351575;32;20193;-61
2022/06/10 09:27:15;;;;;;;0.70;0.70;;;;;;;17.20;74.03;96212.84;4368401;32;20188;-61
2022/06/10 09:29:42;;;;;;;0.77;0.77;;;;;;;17.41;72.38;96205.78;4334474;32;20201;-61
2022/06/10 09:32:44;;;;;;;1.10;1.10;;;;;;;17.62;70.02;96198.69;4356931;32;20200;-61
2022/06/10 09:35:27;;;;;;;1.47;1.43;;;;;;;17.80;66.84;96200.28;4353312;32;20211;-61
2022/06/10 09:38:22;;;;;;;1.37;1.37;;;;;;;17.83;68.41;96204.22;4355022;32;20197;-61
2022/06/10 09:41:33;;;;;;;1.40;1.37;;;;;;;18.06;67.60;96196.78;4365807;32;20229;-61
2022/06/10 09:44:05;;;;;;;0.70;0.70;;;;;;;18.17;69.91;96200.69;4313235;33;20210;-61
2022/06/10 09:46:48;;;;;;;0.50;0.50;;;;;;;18.24;68.52;96198.31;4325733;32;20248;-61
2022/06/10 09:49:33;;;;;;;1.03;1.03;;;;;;;18.06;69.31;96194.09;4350938;32;20189;-61
2022/06/10 09:52:20;;;;;;;0.80;0.80;;;;;;;17.93;70.95;96195.03;4350056;32;20188;-61
2022/06/10 09:55:10;;;;;;;0.60;0.47;;;;;;;17.96;68.60;96200.56;4346193;32;20185;-61
2022/06/10 09:57:57;;;;;;;1.10;1.10;;;;;;;17.97;70.24;96202.16;4357129;32;20219;-61
2022/06/10 10:00:54;;;;;;;1.13;1.13;;;;;;;18.00;67.88;96198.03;4360747;32;20323;-61
2022/06/10 10:03:42;;;;;;;1.43;0.93;;;;;;;17.89;69.72;96202.94;4347944;32;20185;-60
2022/06/10 10:06:32;;;;;;;2.07;1.40;;;;;;;17.80;71.42;96197.59;4356944;32;20222;-60
2022/06/10 10:09:19;;;;;;;0.73;0.73;;;;;;;17.83;71.70;96194.28;4347513;32;20208;-60
2022/06/10 10:12:08;;;;;;;1.17;1.17;;;;;;;18.05;71.49;96193.28;4346186;32;20184;-60
2022/06/10 10:14:59;;;;;;;0.63;0.63;;;;;;;18.35;69.68;96185.31;4345124;32;20192;-61
2022/06/10 10:17:43;;;;;;;1.10;1.10;;;;;;;18.55;67.25;96192.66;4347023;32;20246;-61
2022/06/10 10:20:26;;;;;;;1.00;1.00;;;;;;;18.69;64.34;96187.12;4359522;32;20193;-61
2022/06/10 10:23:33;;;;;;;1.23;1.23;;;;;;;18.85;67.41;96180.06;4359952;32;20315;-60
2022/06/10 10:26:07;;;;;;;0.70;0.70;;;;;;;18.83;63.93;96176.91;4301200;33;20214;-61
2022/06/10 10:28:36;;;;;;;0.73;0.73;;;;;;;18.42;64.83;96181.03;4356268;32;20197;-62
2022/06/10 10:31:28;;;;;;;1.17;1.17;;;;;;;18.46;66.92;96181.97;4360577;32;20250;-60
2022/06/10 10:33:55;;;;;;;0.60;0.60;;;;;;;18.42;66.39;96189.09;4355566;32;20197;-60
2022/06/10 10:36:32;;;;;;;1.63;1.53;;;;;;;18.27;67.16;96194.19;4365746;32;20184;-60
2022/06/10 10:39:26;;;;;;;1.47;1.40;;;;;;;18.19;67.12;96185.03;4365340;32;20197;-60
2022/06/10 10:41:57;;;;;;;3.50;3.10;;;;;;;18.15;65.54;96190.25;4338854;32;20398;-60
2022/06/10 10:44:49;;;;;;;1.87;1.47;;;;;;;18.20;67.61;96192.00;4346026;32;20272;-60
2022/06/10 10:47:21;;;;;;;5.27;4.97;;;;;;;18.29;66.46;96189.28;4348556;32;20180;-60
2022/06/10 10:50:01;;;;;;;14.87;10.47;;;;;;;18.34;66.43;96183.72;4357852;32;20193;-60
2022/06/10 10:52:40;;;;;;;3.73;3.57;;;;;;;18.45;65.50;96188.44;4357869;32;20284;-60
2022/06/10 10:55:22;;;;;;;4.30;3.93;;;;;;;18.39;66.16;96183.56;4355674;32;20193;-60
2022/06/10 10:58:18;;;;;;;7.80;7.00;;;;;;;18.59;63.21;96179.38;4347512;32;20216;-60
2022/06/10 11:00:53;;;;;;;3.57;3.33;;;;;;;18.80;63.24;96177.56;4348272;32;20197;-60
2022/06/10 11:03:33;;;;;;;1.50;1.50;;;;;;;18.84;63.37;96179.28;4351412;32;20246;-60
2022/06/10 11:06:28;;;;;;;1.57;1.50;;;;;;;18.97;63.70;96177.47;4360555;32;20196;-60
2022/06/10 11:09:13;;;;;;;1.00;1.00;;;;;;;18.93;62.08;96176.53;4345335;32;20248;-62
2022/06/10 11:11:41;;;;;;;1.00;1.00;;;;;;;18.82;64.79;96169.97;4344955;32;20185;-59
2022/06/10 11:14:36;;;;;;;0.90;0.90;;;;;;;18.72;64.14;96175.69;4358982;32;20207;-61
2022/06/10 11:17:13;;;;;;;0.60;0.60;;;;;;;18.68;63.22;96170.19;4358938;32;20197;-60
2022/06/10 11:19:45;;;;;;;0.73;0.73;;;;;;;18.75;64.36;96169.66;4356183;32;20216;-60
2022/06/10 11:22:19;;;;;;;1.13;1.10;;;;;;;18.80;65.10;96172.19;4358720;32;20219;-61
2022/06/10 11:25:15;;;;;;;0.70;0.70;;;;;;;19.11;61.55;96172.66;4351675;32;20234;-61
2022/06/10 11:27:49;;;;;;;3.10;2.90;;;;;;;19.22;60.98;96162.28;4362070;32;20235;-61
2022/06/10 11:30:15;;;;;;;2.90;2.37;;;;;;;19.17;61.26;96168.63;4362571;32;20203;-60
2022/06/10 11:32:51;;;;;;;1.47;1.47;;;;;;;19.15;61.45;96165.47;4346889;32;20193;-60
2022/06/10 11:35:38;;;;;;;0.60;0.60;;;;;;;19.11;62.34;96159.19;4344936;32;20193;-60
2022/06/10 11:38:34;;;;;;;0.80;0.80;;;;;;;19.26;62.04;96162.41;4357437;32;20283;-61
2022/06/10 11:41:21;;;;;;;2.50;1.77;;;;;;;19.28;59.27;96154.81;4336041;32;20192;-61
2022/06/10 11:43:53;;;;;;;0.80;0.80;;;;;;;19.38;59.79;96149.00;4354742;32;20244;-60
2022/06/10 11:46:30;;;;;;;1.37;1.30;;;;;;;19.44;59.47;96139.63;4345277;32;20208;-61
2022/06/10 11:49:23;;;;;;;3.53;0.87;;;;;;;19.50;58.16;96143.72;4350580;32;20214;-61
2022/06/10 11:52:04;;;;;;;0.80;0.80;;;;;;;19.65;59.09;96153.09;4326640;33;20216;-60
2022/06/10 11:54:56;;;;;;;1.03;1.03;;;;;;;19.70;57.84;96144.81;4353861;32;20221;-60
2022/06/10 12:00:51;;;;;;;1.07;1.07;;;;;;;19.34;59.75;96134.63;4334557;33;20320;-60
2022/06/10 12:03:35;;;;;;;0.93;0.93;;;;;;;19.32;60.89;96145.75;4343848;33;20238;-60
2022/06/10 12:06:15;;;;;;;1.20;1.20;;;;;;;19.22;60.66;96135.38;4344540;32;20202;-60
2022/06/10 12:09:09;;;;;;;0.73;0.73;;;;;;;19.11;59.81;96128.81;4343466;32;20300;-61
2022/06/10 12:11:46;;;;;;;1.07;1.07;;;;;;;19.18;61.02;96131.75;4342432;33;20197;-60
2022/06/10 12:14:23;;;;;;;0.70;0.70;;;;;;;19.03;60.74;96132.34;4344070;33;20200;-60
2022/06/10 12:16:57;;;;;;;1.53;0.73;;;;;;;18.87;61.64;96124.06;4332630;32;20247;-61
2022/06/10 12:19:40;;;;;;;1.03;1.03;;;;;;;18.93;61.11;96116.56;4345414;32;20272;-60
2022/06/10 12:22:09;;;;;;;1.03;1.03;;;;;;;18.98;60.92;96124.47;4344894;32;20193;-61
2022/06/10 12:24:34;;;;;;;1.07;1.07;;;;;;;19.15;60.18;96125.12;4335420;32;20192;-61